Time;durP1;ratioP1;P1;durP2;ratioP2;P2;SDS_P1;SDS_P2;PMS_P1;PMS_P2;Temp;Humidity;BMP_temperature;BMP_pressure;BME280_temperature;BME280_humidity;BME280_pressure;Samples;Min_cycle;Max_cycle;Signal;HPM_P1;HPM_P2
2022/06/22 00:00:01;;;;;;;8.63;1.87;;;12.90;61.00;;;;;;5067309;28;20269;-80
2022/06/22 00:02:35;;;;;;;2.70;1.90;;;12.90;60.70;;;;;;5068421;28;20185;-76
2022/06/22 00:05:14;;;;;;;3.63;1.60;;;13.10;61.40;;;;;;5059888;28;20192;-78
2022/06/22 00:07:53;;;;;;;2.77;1.70;;;13.20;61.10;;;;;;5074046;28;20202;-75
2022/06/22 00:10:31;;;;;;;2.83;1.40;;;13.30;60.30;;;;;;5073532;28;20535;-73
2022/06/22 00:13:01;;;;;;;2.33;1.43;;;13.40;58.10;;;;;;5072791;28;20232;-78
2022/06/22 00:15:42;;;;;;;4.70;1.63;;;13.40;57.60;;;;;;5054975;28;20172;-78
2022/06/22 00:18:42;;;;;;;1.63;1.30;;;13.50;57.60;;;;;;5074370;28;20184;-77
2022/06/22 00:21:31;;;;;;;3.37;1.40;;;13.60;56.80;;;;;;5057809;28;20214;-74
2022/06/22 00:24:01;;;;;;;4.53;1.30;;;13.70;56.60;;;;;;5061159;28;20195;-78
2022/06/22 00:26:32;;;;;;;2.13;1.40;;;13.70;56.30;;;;;;5054949;28;20261;-79
2022/06/22 00:29:05;;;;;;;3.97;1.20;;;13.80;55.60;;;;;;5061946;28;20198;-77
2022/06/22 00:31:42;;;;;;;1.80;1.20;;;13.80;55.70;;;;;;5063842;28;20200;-77
2022/06/22 00:34:17;;;;;;;1.73;1.40;;;13.80;55.20;;;;;;5052959;28;20250;-78
2022/06/22 00:37:04;;;;;;;3.13;1.37;;;13.90;55.60;;;;;;5053116;28;20183;-75
2022/06/22 00:39:31;;;;;;;3.67;1.10;;;14.10;54.90;;;;;;5055723;28;20230;-75
2022/06/22 00:42:21;;;;;;;2.83;1.20;;;14.20;54.70;;;;;;5066739;28;20308;-75
2022/06/22 00:45:00;;;;;;;3.17;1.40;;;14.10;53.90;;;;;;5054315;28;20172;-73
2022/06/22 00:47:33;;;;;;;2.10;1.10;;;14.30;54.20;;;;;;5062022;28;20171;-76
2022/06/22 00:50:38;;;;;;;2.73;1.20;;;14.30;53.70;;;;;;5070496;28;20665;-81
2022/06/22 00:53:17;;;;;;;3.53;1.40;;;14.40;53.30;;;;;;5066551;28;20183;-75
2022/06/22 00:56:04;;;;;;;1.90;1.13;;;14.50;53.50;;;;;;5064893;28;20693;-76
2022/06/22 00:59:01;;;;;;;8.03;2.27;;;14.70;52.50;;;;;;5063747;28;20179;-82
2022/06/22 01:01:49;;;;;;;4.37;1.40;;;14.80;52.00;;;;;;5068117;28;20194;-74
2022/06/22 01:04:31;;;;;;;1.67;1.10;;;14.80;51.70;;;;;;5066472;28;20675;-76
2022/06/22 01:07:06;;;;;;;3.63;1.20;;;14.80;51.40;;;;;;5066387;28;20534;-75
2022/06/22 01:09:49;;;;;;;5.60;1.20;;;14.90;51.70;;;;;;5072016;28;20653;-85
2022/06/22 01:12:38;;;;;;;3.47;1.10;;;15.10;51.50;;;;;;5062916;28;20231;-81
2022/06/22 01:15:27;;;;;;;5.63;1.20;;;15.20;50.70;;;;;;5068558;28;20202;-79
2022/06/22 01:18:20;;;;;;;2.90;1.30;;;15.20;50.50;;;;;;5064397;28;20670;-75
2022/06/22 01:20:59;;;;;;;5.60;1.20;;;15.30;50.20;;;;;;5070198;28;20179;-75
2022/06/22 01:23:48;;;;;;;2.00;1.20;;;15.50;50.30;;;;;;5072330;28;20186;-77
2022/06/22 01:26:24;;;;;;;3.47;1.30;;;15.70;49.80;;;;;;5063087;28;20250;-76
2022/06/22 01:29:07;;;;;;;3.27;1.37;;;15.90;49.30;;;;;;5069169;28;20190;-74
2022/06/22 01:31:36;;;;;;;2.90;1.13;;;16.00;48.70;;;;;;5066127;28;20258;-78
2022/06/22 01:34:03;;;;;;;2.73;1.23;;;16.00;48.00;;;;;;5068861;28;20199;-75
2022/06/22 01:36:33;;;;;;;3.83;1.20;;;16.10;47.90;;;;;;5071530;28;20651;-75
2022/06/22 01:39:03;;;;;;;3.20;1.20;;;16.00;48.20;;;;;;5067756;28;20239;-77
2022/06/22 01:41:50;;;;;;;1.67;1.30;;;16.20;48.60;;;;;;5066296;28;20191;-78
2022/06/22 01:44:29;;;;;;;3.00;1.20;;;16.20;47.90;;;;;;5067218;28;20233;-75
2022/06/22 01:47:18;;;;;;;2.07;1.23;;;16.40;48.00;;;;;;5066249;28;20184;-73
2022/06/22 01:50:03;;;;;;;1.87;1.27;;;16.60;47.10;;;;;;5068180;28;20193;-74
2022/06/22 01:53:06;;;;;;;4.33;1.13;;;16.70;47.30;;;;;;5070870;28;20214;-74
2022/06/22 01:56:07;;;;;;;2.90;1.20;;;16.60;46.60;;;;;;5064021;28;20181;-75
2022/06/22 01:58:54;;;;;;;1.77;1.10;;;16.90;46.70;;;;;;5071146;28;20193;-74
2022/06/22 02:01:38;;;;;;;2.20;0.93;;;17.30;45.60;;;;;;5063964;28;20541;-75
2022/06/22 02:04:23;;;;;;;1.77;1.10;;;17.70;45.70;;;;;;5067967;28;20203;-76
2022/06/22 02:10:28;;;;;;;4.53;1.00;;;17.50;44.90;;;;;;5065625;28;20193;-79
2022/06/22 02:13:23;;;;;;;4.33;1.43;;;17.80;45.00;;;;;;5071080;28;20194;-77
2022/06/22 02:16:14;;;;;;;2.43;1.00;;;17.90;44.30;;;;;;5051422;28;20627;-76
2022/06/22 02:18:52;;;;;;;1.67;1.00;;;18.00;44.00;;;;;;5069820;28;20195;-76
2022/06/22 02:21:46;;;;;;;2.57;1.20;;;18.00;44.80;;;;;;5068008;28;20290;-74
2022/06/22 02:24:32;;;;;;;2.33;0.90;;;18.10;43.60;;;;;;5052664;28;20548;-76
2022/06/22 02:27:08;;;;;;;1.33;0.83;;;17.80;44.40;;;;;;5062260;28;20234;-82
2022/06/22 02:29:40;;;;;;;5.13;1.00;;;17.90;43.90;;;;;;5053015;28;20190;-80
2022/06/22 02:32:18;;;;;;;3.33;0.90;;;17.80;45.30;;;;;;5052459;28;20208;-76
2022/06/22 02:34:51;;;;;;;5.73;1.10;;;17.50;44.80;;;;;;5058745;28;20177;-76
2022/06/22 02:37:21;;;;;;;1.70;1.03;;;17.60;45.20;;;;;;5052303;28;20211;-77
2022/06/22 02:40:01;;;;;;;3.53;1.20;;;17.60;45.50;;;;;;5053019;28;20535;-76
2022/06/22 02:45:20;;;;;;;3.53;1.00;;;17.40;45.90;;;;;;5061672;28;20555;-78
2022/06/22 02:47:59;;;;;;;1.33;0.80;;;17.10;45.70;;;;;;5067733;28;20185;-76
2022/06/22 02:50:37;;;;;;;2.40;1.00;;;17.20;46.70;;;;;;5070027;28;20190;-76
2022/06/22 02:53:25;;;;;;;2.17;1.10;;;17.20;46.10;;;;;;5063700;28;20194;-77
2022/06/22 02:55:55;;;;;;;2.57;1.30;;;17.10;46.50;;;;;;5054148;28;20663;-77
2022/06/22 02:58:27;;;;;;;1.87;1.10;;;17.50;46.70;;;;;;5059730;28;20182;-78
2022/06/22 03:00:55;;;;;;;1.37;0.90;;;17.20;46.20;;;;;;5059362;28;20584;-77
2022/06/22 03:03:24;;;;;;;2.13;0.97;;;17.20;46.20;;;;;;5064516;28;20583;-78
2022/06/22 03:05:56;;;;;;;2.80;1.10;;;17.10;46.90;;;;;;5070158;28;20238;-76
2022/06/22 03:08:24;;;;;;;2.00;1.00;;;17.00;47.40;;;;;;5070399;28;20654;-78
2022/06/22 03:11:04;;;;;;;2.83;1.10;;;17.20;46.00;;;;;;5063919;28;20222;-80
2022/06/22 03:13:56;;;;;;;3.50;1.10;;;17.40;45.90;;;;;;5064505;28;20362;-77
2022/06/22 03:16:34;;;;;;;4.40;1.13;;;17.70;45.60;;;;;;5062357;28;20555;-78
2022/06/22 03:19:08;;;;;;;6.40;1.40;;;17.80;45.20;;;;;;5059001;28;20593;-76
2022/06/22 03:21:35;;;;;;;2.70;1.10;;;17.50;45.70;;;;;;5061778;28;20196;-75
2022/06/22 03:24:06;;;;;;;3.10;0.90;;;17.50;46.50;;;;;;5056889;28;20175;-76
2022/06/22 03:26:47;;;;;;;5.50;1.20;;;17.70;44.90;;;;;;5063174;28;20227;-78
2022/06/22 03:29:27;;;;;;;2.13;0.93;;;17.50;45.30;;;;;;5070836;28;20184;-79
2022/06/22 03:32:26;;;;;;;3.23;1.30;;;17.20;45.60;;;;;;5056090;28;20215;-80
2022/06/22 03:35:23;;;;;;;1.80;0.93;;;17.20;46.50;;;;;;5068072;28;20668;-79
2022/06/22 03:38:00;;;;;;;1.27;0.80;;;17.70;46.00;;;;;;5072794;28;20671;-77
2022/06/22 03:40:42;;;;;;;0.90;0.70;;;18.50;43.20;;;;;;5055381;28;20198;-75
2022/06/22 03:43:32;;;;;;;2.07;0.77;;;19.00;41.80;;;;;;5057705;28;20175;-79
2022/06/22 03:46:21;;;;;;;1.87;0.90;;;19.70;40.90;;;;;;5073953;28;20180;-76
2022/06/22 03:49:04;;;;;;;4.97;0.80;;;19.80;39.50;;;;;;5064469;28;20216;-76
2022/06/22 03:51:55;;;;;;;2.27;0.90;;;20.00;39.70;;;;;;5072009;28;20686;-78
2022/06/22 03:54:33;;;;;;;1.57;1.00;;;20.60;38.60;;;;;;5060272;28;20195;-77
2022/06/22 03:57:04;;;;;;;3.20;0.90;;;20.80;37.80;;;;;;5070547;28;20263;-77
2022/06/22 03:59:32;;;;;;;2.87;0.93;;;20.80;37.20;;;;;;5054959;28;20604;-77
2022/06/22 04:02:00;;;;;;;1.77;0.90;;;20.90;36.90;;;;;;5055051;28;20176;-76
2022/06/22 04:04:28;;;;;;;2.17;1.00;;;20.80;37.00;;;;;;5053501;28;20180;-77
2022/06/22 04:06:56;;;;;;;2.43;1.00;;;20.30;37.20;;;;;;5054930;28;20274;-79
2022/06/22 04:09:26;;;;;;;3.47;1.23;;;20.40;37.40;;;;;;5054561;28;20188;-77
2022/06/22 04:12:00;;;;;;;0.60;0.60;;;20.30;37.30;;;;;;5056524;28;20756;-77
2022/06/22 04:14:27;;;;;;;1.27;0.67;;;20.40;36.90;;;;;;5059921;28;20190;-78
2022/06/22 04:17:00;;;;;;;0.83;0.73;;;20.30;36.90;;;;;;5061594;28;20253;-79
2022/06/22 04:19:57;;;;;;;2.00;0.80;;;20.30;37.40;;;;;;5067535;28;20195;-79
2022/06/22 04:22:27;;;;;;;1.80;0.80;;;20.90;36.40;;;;;;5071532;28;21680;-77
2022/06/22 04:25:04;;;;;;;2.20;0.70;;;21.00;36.40;;;;;;5075713;28;20186;-76
2022/06/22 04:27:40;;;;;;;2.20;0.83;;;21.20;35.50;;;;;;5070019;28;20233;-83
2022/06/22 04:30:08;;;;;;;2.93;0.80;;;21.20;36.30;;;;;;5072285;28;20210;-79
2022/06/22 04:32:41;;;;;;;2.20;0.93;;;21.50;35.30;;;;;;5072081;28;20276;-79
2022/06/22 04:35:31;;;;;;;1.37;0.80;;;21.60;35.20;;;;;;5071390;28;20187;-79
2022/06/22 04:38:20;;;;;;;1.33;0.83;;;22.20;34.50;;;;;;5068418;28;20191;-80
2022/06/22 04:40:57;;;;;;;3.23;0.87;;;22.80;33.00;;;;;;5070621;28;20186;-80
2022/06/22 04:43:25;;;;;;;1.07;0.73;;;22.30;33.80;;;;;;5074833;28;20175;-79
2022/06/22 04:45:53;;;;;;;1.80;0.90;;;22.60;33.30;;;;;;5065724;28;20271;-79
2022/06/22 04:48:47;;;;;;;0.90;0.70;;;22.80;33.00;;;;;;5069230;28;20183;-80
2022/06/22 04:51:20;;;;;;;1.40;0.80;;;22.80;33.00;;;;;;5071305;28;20234;-79
2022/06/22 04:54:01;;;;;;;2.33;0.87;;;22.90;32.00;;;;;;5074558;28;20633;-80
2022/06/22 04:56:50;;;;;;;2.03;0.80;;;23.60;30.80;;;;;;5068550;28;20183;-79
2022/06/22 04:59:18;;;;;;;4.00;0.80;;;23.00;31.70;;;;;;5063484;28;20865;-74
2022/06/22 05:02:05;;;;;;;2.37;0.90;;;22.80;32.60;;;;;;5053763;28;20610;-79
2022/06/22 05:04:39;;;;;;;1.40;0.80;;;22.70;32.40;;;;;;5071207;28;20219;-81
2022/06/22 05:07:39;;;;;;;0.87;0.70;;;23.50;31.50;;;;;;5075032;28;20549;-81
2022/06/22 05:10:35;;;;;;;4.50;0.77;;;23.10;31.50;;;;;;5071310;28;20187;-78
2022/06/22 05:13:10;;;;;;;1.20;0.80;;;21.50;34.60;;;;;;5071325;28;20192;-79
2022/06/22 05:15:39;;;;;;;1.17;0.83;;;21.00;35.20;;;;;;5070956;28;20262;-79
2022/06/22 05:18:15;;;;;;;1.00;0.70;;;20.20;36.60;;;;;;5070203;28;20187;-77
2022/06/22 05:20:54;;;;;;;4.27;0.97;;;19.50;38.70;;;;;;5066881;28;20198;-76
2022/06/22 05:23:24;;;;;;;3.53;1.03;;;19.60;38.00;;;;;;5073086;28;20209;-81
2022/06/22 05:25:54;;;;;;;2.80;0.80;;;20.50;37.20;;;;;;5071581;28;20227;-78
2022/06/22 05:28:36;;;;;;;1.00;0.73;;;21.20;35.50;;;;;;5067231;28;20187;-77
2022/06/22 05:31:09;;;;;;;1.37;0.70;;;21.80;34.60;;;;;;5067872;28;20290;-80
2022/06/22 05:33:40;;;;;;;2.20;0.90;;;22.40;33.90;;;;;;5068580;28;20206;-76
2022/06/22 05:36:11;;;;;;;1.70;1.10;;;23.00;33.00;;;;;;5066028;28;21354;-77
2022/06/22 05:38:44;;;;;;;1.20;0.93;;;22.90;33.60;;;;;;5070654;28;20629;-79
2022/06/22 05:41:15;;;;;;;6.47;0.90;;;23.30;33.30;;;;;;5074816;28;20652;-80
2022/06/22 05:43:43;;;;;;;2.23;0.70;;;23.50;31.60;;;;;;5063843;28;20194;-79
2022/06/22 05:46:11;;;;;;;1.70;1.00;;;23.40;32.10;;;;;;5068793;28;20187;-79
2022/06/22 05:48:48;;;;;;;5.17;0.93;;;23.00;33.70;;;;;;5068551;28;20250;-79
2022/06/22 05:51:28;;;;;;;5.60;0.80;;;23.10;33.00;;;;;;5064118;28;20621;-79
2022/06/22 05:54:10;;;;;;;2.60;0.90;;;23.10;33.00;;;;;;5068552;28;20567;-80
2022/06/22 05:56:55;;;;;;;0.97;0.60;;;23.70;31.50;;;;;;5067449;28;20641;-77
2022/06/22 05:59:42;;;;;;;1.77;0.90;;;23.30;32.10;;;;;;5076504;28;20194;-81
2022/06/22 06:02:48;;;;;;;1.70;1.03;;;23.20;32.90;;;;;;5064176;28;20195;-80
2022/06/22 06:05:34;;;;;;;2.00;1.10;;;23.00;33.10;;;;;;5069620;28;20267;-78
2022/06/22 06:08:07;;;;;;;1.10;0.80;;;23.50;32.20;;;;;;5067906;28;20190;-78
2022/06/22 06:10:39;;;;;;;2.47;0.80;;;22.80;32.40;;;;;;5072377;28;20193;-78
2022/06/22 06:13:38;;;;;;;2.27;1.07;;;21.50;36.50;;;;;;5066688;28;20199;-79
2022/06/22 06:16:34;;;;;;;2.80;1.10;;;20.70;37.50;;;;;;5070098;28;20245;-80
2022/06/22 06:19:05;;;;;;;4.17;1.13;;;20.30;39.00;;;;;;5068163;28;20286;-78
2022/06/22 06:21:36;;;;;;;6.17;1.00;;;19.70;41.50;;;;;;5079397;28;20267;-80
2022/06/22 06:24:14;;;;;;;2.00;0.90;;;19.20;42.90;;;;;;5053278;28;20650;-80
2022/06/22 06:30:10;;;;;;;2.30;0.90;;;18.50;42.70;;;;;;5067946;28;20189;-79
2022/06/22 06:32:58;;;;;;;0.97;0.70;;;18.10;43.70;;;;;;5057876;28;20282;-78
2022/06/22 06:35:35;;;;;;;1.17;0.60;;;17.80;44.60;;;;;;5063013;28;20188;-78
2022/06/22 06:38:05;;;;;;;2.70;0.87;;;17.50;45.60;;;;;;5060943;28;20167;-78
2022/06/22 06:40:42;;;;;;;3.63;1.03;;;17.30;47.30;;;;;;5068158;28;20199;-78
2022/06/22 06:43:19;;;;;;;1.83;1.00;;;17.00;48.50;;;;;;5069754;28;20261;-78
2022/06/22 06:45:47;;;;;;;1.30;0.83;;;16.80;50.00;;;;;;5073023;28;20185;-78
2022/06/22 06:48:22;;;;;;;1.13;0.90;;;16.70;50.90;;;;;;5068756;28;20230;-78
2022/06/22 06:50:52;;;;;;;3.03;1.00;;;16.50;51.00;;;;;;5056080;28;20208;-76
2022/06/22 06:53:45;;;;;;;7.60;1.20;;;16.30;51.10;;;;;;5069639;28;20188;-78
2022/06/22 06:56:17;;;;;;;4.47;1.47;;;16.20;51.40;;;;;;5056054;28;20183;-78
2022/06/22 06:58:57;;;;;;;3.30;1.27;;;16.00;51.80;;;;;;5056279;28;20211;-78
2022/06/22 07:01:29;;;;;;;5.13;1.50;;;15.90;53.90;;;;;;5056256;28;20267;-74
2022/06/22 07:04:07;;;;;;;9.63;1.80;;;15.70;54.80;;;;;;5056327;28;20183;-76
2022/06/22 07:06:35;;;;;;;2.97;1.80;;;15.50;55.10;;;;;;5056802;28;20177;-77
2022/06/22 07:09:08;;;;;;;4.80;1.80;;;15.50;55.90;;;;;;5055888;28;20268;-77
2022/06/22 07:11:46;;;;;;;7.50;2.00;;;15.30;56.20;;;;;;5055966;28;20206;-78
2022/06/22 07:14:40;;;;;;;4.93;1.83;;;15.20;57.00;;;;;;5066905;28;20184;-78
2022/06/22 07:17:14;;;;;;;6.60;1.90;;;15.10;58.00;;;;;;5070160;28;20218;-78
2022/06/22 07:20:00;;;;;;;3.23;1.80;;;14.90;58.30;;;;;;5056124;28;20166;-77
2022/06/22 07:22:49;;;;;;;8.03;2.10;;;14.80;58.70;;;;;;5064153;28;20189;-76
2022/06/22 07:25:25;;;;;;;6.00;2.00;;;14.80;59.80;;;;;;5067643;28;20181;-76
2022/06/22 07:28:06;;;;;;;5.40;1.93;;;14.80;59.70;;;;;;5055736;28;20196;-78
2022/06/22 07:31:05;;;;;;;4.90;1.97;;;14.70;60.80;;;;;;5055554;28;20174;-78
2022/06/22 07:33:41;;;;;;;5.27;2.60;;;14.70;61.40;;;;;;5055638;28;20618;-77
2022/06/22 07:36:21;;;;;;;6.53;2.43;;;14.60;61.90;;;;;;5055601;28;20167;-77
2022/06/22 07:39:03;;;;;;;5.00;2.53;;;14.50;61.60;;;;;;5055627;28;20179;-79
2022/06/22 07:41:32;;;;;;;8.70;2.40;;;14.40;61.90;;;;;;5055532;28;20199;-79
2022/06/22 07:44:08;;;;;;;6.87;2.23;;;14.30;62.00;;;;;;5054136;28;20196;-78
2022/06/22 07:46:48;;;;;;;4.50;2.40;;;14.30;62.20;;;;;;5055323;28;20198;-78
2022/06/22 07:49:31;;;;;;;14.43;4.37;;;14.30;62.70;;;;;;5054397;28;20234;-76
2022/06/22 07:52:08;;;;;;;12.50;7.20;;;14.20;62.70;;;;;;5062027;28;20297;-77
2022/06/22 07:55:04;;;;;;;12.30;7.00;;;14.10;62.90;;;;;;5072316;28;20265;-78
2022/06/22 07:58:08;;;;;;;11.30;4.93;;;14.10;64.00;;;;;;5054921;28;20185;-77
2022/06/22 08:00:38;;;;;;;4.83;3.53;;;13.90;65.20;;;;;;5070933;28;20175;-78
2022/06/22 08:03:29;;;;;;;11.40;4.50;;;13.80;65.80;;;;;;5070639;28;20183;-77
2022/06/22 08:06:01;;;;;;;12.40;3.83;;;13.80;66.10;;;;;;5067571;28;20192;-78
2022/06/22 08:09:01;;;;;;;7.00;3.63;;;13.70;66.10;;;;;;5070655;28;20261;-76
2022/06/22 08:11:47;;;;;;;10.23;3.90;;;13.70;65.80;;;;;;5054393;28;20208;-76
2022/06/22 08:14:25;;;;;;;7.70;3.23;;;13.60;66.20;;;;;;5067377;28;20188;-78
2022/06/22 08:16:59;;;;;;;9.87;3.77;;;13.50;66.70;;;;;;5062931;28;20633;-76
2022/06/22 08:19:29;;;;;;;10.13;3.47;;;13.50;66.80;;;;;;5062405;28;20187;-75
2022/06/22 08:22:01;;;;;;;8.37;3.40;;;13.40;67.00;;;;;;5060392;28;20260;-77
2022/06/22 08:24:33;;;;;;;12.83;4.43;;;13.30;67.00;;;;;;5063369;28;20233;-76
2022/06/22 08:27:01;;;;;;;6.57;3.53;;;13.40;66.90;;;;;;5059001;28;20222;-76
2022/06/22 08:29:37;;;;;;;15.43;4.97;;;13.30;67.90;;;;;;5054650;28;20195;-77
2022/06/22 08:32:21;;;;;;;14.93;3.97;;;13.20;69.30;;;;;;5068185;28;20202;-75
2022/06/22 08:34:58;;;;;;;13.03;4.90;;;13.10;70.00;;;;;;5054462;28;20175;-77
2022/06/22 08:37:40;;;;;;;22.23;4.33;;;13.10;70.60;;;;;;5056006;28;20791;-77
2022/06/22 08:40:22;;;;;;;9.10;4.43;;;13.00;71.10;;;;;;5067288;28;20167;-75
2022/06/22 08:43:28;;;;;;;9.83;4.33;;;13.00;71.10;;;;;;5054440;28;20626;-76
2022/06/22 08:46:26;;;;;;;10.97;3.93;;;12.90;71.90;;;;;;5054352;28;20175;-77
2022/06/22 08:49:12;;;;;;;8.60;3.83;;;12.90;72.30;;;;;;5054277;28;20180;-77
2022/06/22 08:51:54;;;;;;;13.33;3.90;;;12.90;72.10;;;;;;5058153;28;20324;-76
2022/06/22 08:54:57;;;;;;;12.07;4.47;;;12.90;73.00;;;;;;5061942;28;20171;-77
2022/06/22 08:57:38;;;;;;;11.90;3.97;;;12.90;73.10;;;;;;5053895;28;20799;-76
2022/06/22 09:00:18;;;;;;;10.17;3.77;;;12.80;73.10;;;;;;5064508;28;20521;-76
2022/06/22 09:03:04;;;;;;;9.53;4.07;;;12.80;73.10;;;;;;5059765;28;20188;-76
2022/06/22 09:05:35;;;;;;;7.77;4.13;;;12.80;73.50;;;;;;5060446;28;20179;-76
2022/06/22 09:08:11;;;;;;;7.90;4.17;;;12.80;73.80;;;;;;5053753;28;20175;-76
2022/06/22 09:10:51;;;;;;;10.27;3.97;;;12.80;73.80;;;;;;5053394;28;20232;-76
2022/06/22 09:13:40;;;;;;;6.87;3.87;;;12.80;73.50;;;;;;5053916;28;20652;-75
2022/06/22 09:16:29;;;;;;;9.10;4.10;;;12.80;73.40;;;;;;5058591;28;20167;-76
2022/06/22 09:19:25;;;;;;;14.40;4.67;;;12.80;73.00;;;;;;5059866;28;20634;-76
2022/06/22 09:22:20;;;;;;;12.43;4.50;;;12.70;73.60;;;;;;5068744;28;20171;-76
2022/06/22 09:25:06;;;;;;;6.83;3.90;;;12.60;73.70;;;;;;5053386;28;20672;-76
2022/06/22 09:27:55;;;;;;;6.23;4.00;;;12.60;73.70;;;;;;5064122;28;20583;-76
2022/06/22 09:30:53;;;;;;;7.40;4.13;;;12.50;73.70;;;;;;5057333;28;20189;-75
2022/06/22 09:33:26;;;;;;;12.93;4.73;;;12.40;73.20;;;;;;5051927;28;20246;-76
2022/06/22 09:36:12;;;;;;;10.20;4.80;;;12.30;72.80;;;;;;5062479;28;20653;-76
2022/06/22 09:38:49;;;;;;;9.80;4.57;;;12.20;72.90;;;;;;5073537;28;20309;-76
2022/06/22 09:41:40;;;;;;;8.00;4.23;;;12.30;73.60;;;;;;5068738;28;20186;-76
2022/06/22 09:44:38;;;;;;;7.37;4.47;;;12.30;73.90;;;;;;5069668;28;20226;-76
2022/06/22 09:47:22;;;;;;;7.27;4.33;;;12.30;73.80;;;;;;5058876;28;20211;-76
2022/06/22 09:49:53;;;;;;;6.73;3.87;;;12.20;73.80;;;;;;5076154;28;20698;-77
2022/06/22 09:52:43;;;;;;;8.40;4.33;;;12.20;73.60;;;;;;5073886;28;20233;-76
2022/06/22 09:58:46;;;;;;;9.40;4.30;;;12.20;73.80;;;;;;5053080;28;20186;-76
2022/06/22 10:01:31;;;;;;;9.87;4.30;;;12.20;74.60;;;;;;5064690;28;20221;-76
2022/06/22 10:04:28;;;;;;;13.03;4.77;;;12.20;74.40;;;;;;5071767;28;20182;-76
2022/06/22 10:07:17;;;;;;;7.73;4.30;;;12.20;74.90;;;;;;5055307;28;20191;-75
2022/06/22 10:10:08;;;;;;;11.77;5.10;;;12.20;74.80;;;;;;5072985;28;20318;-76
2022/06/22 10:12:38;;;;;;;13.40;5.00;;;12.20;74.80;;;;;;5069752;28;20237;-76
2022/06/22 10:15:46;;;;;;;8.53;4.30;;;12.20;74.90;;;;;;5053018;28;20206;-76
2022/06/22 10:18:38;;;;;;;15.57;5.83;;;12.20;75.30;;;;;;5055171;28;20524;-76
2022/06/22 10:21:35;;;;;;;11.20;4.90;;;12.20;75.30;;;;;;5054404;28;20554;-76
2022/06/22 10:24:17;;;;;;;14.00;5.73;;;12.20;75.80;;;;;;5069405;28;20203;-76
2022/06/22 10:26:52;;;;;;;11.10;4.97;;;12.00;76.10;;;;;;5052409;28;20733;-77
2022/06/22 10:29:43;;;;;;;11.03;5.47;;;12.00;76.30;;;;;;5052458;28;20175;-77
2022/06/22 10:32:47;;;;;;;12.07;5.57;;;11.90;76.60;;;;;;5058166;28;20201;-76
2022/06/22 10:35:48;;;;;;;12.60;6.10;;;11.80;77.20;;;;;;5071965;28;20181;-76
2022/06/22 10:39:02;;;;;;;14.57;7.43;;;11.80;77.60;;;;;;5054386;28;20646;-76
2022/06/22 10:45:08;;;;;;;21.63;9.30;;;11.60;78.20;;;;;;5051656;28;20209;-76
2022/06/22 10:48:09;;;;;;;17.93;10.17;;;11.50;78.40;;;;;;5068660;28;20450;-76
2022/06/22 10:51:19;;;;;;;13.50;8.77;;;11.50;78.60;;;;;;5069124;28;20667;-77
2022/06/22 10:53:52;;;;;;;11.53;7.67;;;11.40;78.80;;;;;;5051098;28;20210;-76
2022/06/22 10:56:41;;;;;;;10.10;6.90;;;11.40;79.00;;;;;;5066448;28;20531;-76
2022/06/22 10:59:09;;;;;;;12.00;6.50;;;11.30;78.90;;;;;;5062726;28;20194;-77
2022/06/22 11:01:57;;;;;;;14.40;6.50;;;11.30;79.20;;;;;;5067695;28;20189;-76
2022/06/22 11:05:12;;;;;;;9.90;6.47;;;11.20;79.20;;;;;;5050761;28;20266;-77
2022/06/22 11:08:00;;;;;;;9.13;5.83;;;11.20;79.60;;;;;;5050859;28;20195;-75
2022/06/22 11:10:58;;;;;;;8.27;5.97;;;11.20;79.60;;;;;;5051486;28;20232;-76
2022/06/22 11:14:02;;;;;;;11.57;7.17;;;11.10;80.20;;;;;;5059812;28;20191;-77
2022/06/22 11:16:41;;;;;;;9.83;6.53;;;11.20;80.20;;;;;;5059777;28;20181;-76
2022/06/22 11:19:41;;;;;;;12.87;7.70;;;11.10;80.20;;;;;;5054554;28;20251;-76
2022/06/22 11:22:47;;;;;;;11.83;7.20;;;11.10;80.40;;;;;;5065939;28;20168;-76
2022/06/22 11:31:42;;;;;;;23.00;7.57;;;11.00;80.30;;;;;;5057137;28;20221;-76
2022/06/22 11:34:27;;;;;;;14.60;7.70;;;11.00;80.30;;;;;;5072526;28;20249;-76
2022/06/22 11:37:32;;;;;;;14.47;7.13;;;11.00;80.60;;;;;;5056622;28;20630;-76
2022/06/22 11:40:23;;;;;;;11.07;7.03;;;11.00;80.10;;;;;;5055329;28;20720;-76
2022/06/22 11:43:17;;;;;;;16.27;7.17;;;11.00;80.20;;;;;;5055511;28;20167;-76
2022/06/22 11:45:50;;;;;;;20.97;7.23;;;11.00;80.10;;;;;;5055636;28;20196;-76
2022/06/22 11:48:38;;;;;;;15.47;7.63;;;11.00;80.00;;;;;;5055382;28;20188;-75
2022/06/22 11:51:42;;;;;;;13.30;7.27;;;11.00;80.00;;;;;;5055382;28;20196;-76
2022/06/22 11:54:45;;;;;;;11.63;6.47;;;10.90;79.90;;;;;;5054929;28;20179;-75
2022/06/22 11:57:25;;;;;;;11.17;7.13;;;10.90;79.90;;;;;;5055328;28;20175;-75
2022/06/22 12:00:14;;;;;;;22.43;7.87;;;10.80;80.20;;;;;;5055314;28;20173;-75
2022/06/22 12:02:59;;;;;;;16.30;7.93;;;10.80;80.00;;;;;;5055237;28;20178;-76
2022/06/22 12:05:57;;;;;;;12.00;8.00;;;10.70;80.60;;;;;;5055273;28;20180;-75
2022/06/22 12:08:41;;;;;;;13.57;8.17;;;10.60;80.70;;;;;;5054912;28;20665;-76
2022/06/22 12:11:18;;;;;;;16.07;8.33;;;10.60;80.90;;;;;;5055035;28;20196;-75
2022/06/22 12:16:51;;;;;;;12.63;7.40;;;10.60;81.00;;;;;;5055145;28;20191;-74
2022/06/22 12:19:41;;;;;;;16.43;7.70;;;10.70;81.20;;;;;;5059129;28;20187;-75
2022/06/22 12:22:28;;;;;;;12.90;6.53;;;10.60;80.70;;;;;;5067382;28;20630;-76
2022/06/22 12:25:11;;;;;;;13.07;7.67;;;10.60;79.70;;;;;;5062961;28;20653;-76
2022/06/22 12:27:43;;;;;;;13.17;6.73;;;10.60;80.10;;;;;;5070532;28;20219;-75
2022/06/22 12:30:22;;;;;;;9.70;5.90;;;10.60;79.90;;;;;;5073518;28;20192;-75
2022/06/22 12:32:59;;;;;;;10.60;5.60;;;10.60;80.10;;;;;;5066642;28;20203;-75
2022/06/22 12:35:55;;;;;;;9.63;6.37;;;10.60;79.70;;;;;;5059173;28;20644;-76
2022/06/22 12:38:49;;;;;;;10.37;5.80;;;10.50;79.50;;;;;;5054577;28;20178;-75
2022/06/22 12:41:31;;;;;;;9.67;6.33;;;10.40;79.90;;;;;;5070344;28;20218;-76
2022/06/22 12:44:25;;;;;;;8.83;5.90;;;10.30;80.20;;;;;;5056223;28;20214;-76
2022/06/22 12:47:07;;;;;;;11.97;6.03;;;10.30;80.30;;;;;;5054303;28;20284;-75
2022/06/22 12:49:40;;;;;;;9.63;5.87;;;10.20;80.90;;;;;;5054240;28;20218;-76
2022/06/22 12:52:44;;;;;;;11.57;6.43;;;10.30;81.30;;;;;;5061859;28;20214;-76
2022/06/22 12:55:21;;;;;;;10.87;6.73;;;10.20;81.20;;;;;;5064953;28;20182;-75
2022/06/22 12:58:11;;;;;;;16.27;6.77;;;10.20;81.50;;;;;;5054407;28;20583;-75
2022/06/22 13:00:42;;;;;;;15.40;6.90;;;10.20;81.30;;;;;;5053934;28;20191;-76
2022/06/22 13:03:17;;;;;;;13.00;6.13;;;10.30;81.60;;;;;;5063950;28;20262;-76
2022/06/22 13:05:44;;;;;;;13.10;5.97;;;10.20;81.80;;;;;;5062495;28;20177;-75
2022/06/22 13:08:18;;;;;;;10.80;6.10;;;10.20;81.80;;;;;;5059453;28;20195;-76
2022/06/22 13:10:50;;;;;;;13.53;5.97;;;10.20;81.70;;;;;;5053592;28;20190;-75
2022/06/22 13:13:21;;;;;;;15.87;6.07;;;10.20;81.70;;;;;;5069366;28;20322;-75
2022/06/22 13:16:17;;;;;;;13.53;5.70;;;10.10;81.90;;;;;;5059360;28;20715;-76
2022/06/22 13:19:08;;;;;;;12.73;5.63;;;10.20;82.20;;;;;;5053087;28;20556;-75
2022/06/22 13:21:59;;;;;;;9.03;4.83;;;10.20;82.20;;;;;;5056999;28;20174;-75
2022/06/22 13:24:48;;;;;;;10.27;5.67;;;10.10;81.70;;;;;;5055601;28;20543;-75
2022/06/22 13:27:58;;;;;;;9.10;5.20;;;10.00;82.40;;;;;;5053383;28;20257;-75
2022/06/22 13:30:43;;;;;;;10.43;5.50;;;10.00;82.00;;;;;;5053128;28;20652;-75
2022/06/22 13:33:38;;;;;;;8.60;5.80;;;10.00;82.20;;;;;;5053462;28;20658;-75
2022/06/22 13:36:23;;;;;;;8.03;5.10;;;9.90;82.40;;;;;;5057569;28;20187;-76
2022/06/22 13:39:17;;;;;;;9.80;5.40;;;9.90;82.10;;;;;;5053500;28;20206;-75
2022/06/22 13:41:59;;;;;;;9.23;5.27;;;9.90;82.70;;;;;;5053424;28;20181;-75
2022/06/22 13:44:58;;;;;;;6.90;4.33;;;9.80;82.20;;;;;;5053256;28;20212;-76
2022/06/22 13:47:37;;;;;;;7.30;4.17;;;9.90;82.80;;;;;;5052381;28;20186;-75
2022/06/22 13:50:32;;;;;;;7.37;4.47;;;9.90;82.50;;;;;;5053268;28;20210;-75
2022/06/22 13:53:28;;;;;;;10.47;4.23;;;9.80;82.40;;;;;;5057897;28;20222;-76
2022/06/22 13:56:05;;;;;;;8.20;4.23;;;9.80;82.70;;;;;;5049916;28;20520;-75
2022/06/22 13:59:03;;;;;;;6.67;4.40;;;9.80;82.60;;;;;;5053237;28;20195;-75
2022/06/22 14:01:43;;;;;;;11.10;4.53;;;9.80;82.90;;;;;;5052735;28;20189;-75
2022/06/22 14:04:21;;;;;;;7.90;4.50;;;9.70;82.90;;;;;;5053014;28;20361;-75
2022/06/22 14:06:59;;;;;;;7.23;4.17;;;9.80;82.90;;;;;;5060410;28;20636;-74
2022/06/22 14:09:43;;;;;;;9.03;4.40;;;9.70;83.10;;;;;;5059780;28;20546;-75
2022/06/22 14:12:10;;;;;;;8.83;4.23;;;9.70;83.20;;;;;;5052767;28;20199;-75
2022/06/22 14:15:18;;;;;;;12.23;4.50;;;9.70;82.90;;;;;;5052959;28;20171;-75
2022/06/22 14:18:03;;;;;;;5.83;4.33;;;9.60;82.80;;;;;;5060263;28;20170;-75
2022/06/22 14:21:04;;;;;;;9.37;4.73;;;9.60;83.20;;;;;;5061005;28;20602;-75
2022/06/22 14:23:34;;;;;;;10.07;4.70;;;9.60;83.30;;;;;;5058404;28;20186;-75
2022/06/22 14:26:35;;;;;;;7.30;4.30;;;9.60;83.40;;;;;;5052754;28;20221;-76
2022/06/22 14:29:21;;;;;;;10.20;4.50;;;9.60;83.40;;;;;;5055220;28;20185;-75